createdAt,value
2022-12-25T00:02:09.996Z,74.40
2022-12-25T00:05:14.156Z,74.30
2022-12-25T00:08:16.847Z,74.30
2022-12-25T00:11:20.680Z,74.20
2022-12-25T00:14:23.585Z,74.20
2022-12-25T00:17:26.414Z,74.30
2022-12-25T00:20:30.568Z,74.30
2022-12-25T00:23:33.692Z,74.40
2022-12-25T00:26:36.471Z,74.70
2022-12-25T00:29:39.287Z,74.30
2022-12-25T00:32:42.147Z,74.40
2022-12-25T00:35:46.581Z,74.50
2022-12-25T00:38:49.505Z,74.60
2022-12-25T00:42:10.099Z,74.50
2022-12-25T00:45:14.250Z,74.60
2022-12-25T00:48:18.677Z,74.70
2022-12-25T00:51:22.868Z,74.70
2022-12-25T00:54:25.564Z,74.90
2022-12-25T00:57:28.403Z,75.50
2022-12-25T01:00:31.580Z,74.70
2022-12-25T01:03:34.416Z,74.90
2022-12-25T01:06:39.134Z,75.00
2022-12-25T01:10:00.436Z,75.10
2022-12-25T01:13:03.757Z,75.20
2022-12-25T01:16:07.845Z,75.20
2022-12-25T01:19:11.344Z,75.40
2022-12-25T01:22:16.224Z,76.20
2022-12-25T01:25:19.102Z,75.40
2022-12-25T01:28:21.953Z,75.50
2022-12-25T01:31:26.368Z,75.60
2022-12-25T01:34:29.379Z,75.70
2022-12-25T01:37:33.580Z,75.80
2022-12-25T01:40:36.546Z,75.80
2022-12-25T01:44:06.567Z,75.80
2022-12-25T01:47:09.357Z,76.20
2022-12-25T01:50:12.280Z,75.80
2022-12-25T01:53:16.817Z,75.60
2022-12-25T01:56:20.306Z,75.50
2022-12-25T01:59:26.855Z,75.50
2022-12-25T02:02:30.717Z,75.50
2022-12-25T02:05:35.919Z,75.50
2022-12-25T02:08:42.321Z,75.60
2022-12-25T02:11:58.322Z,75.60
2022-12-25T02:15:06.910Z,75.40
2022-12-25T02:18:20.346Z,75.40
2022-12-25T02:21:52.970Z,75.40
2022-12-25T02:25:14.445Z,75.70
2022-12-25T02:28:24.098Z,75.80
2022-12-25T02:31:39.299Z,75.80
2022-12-25T02:34:50.090Z,75.90
2022-12-25T02:38:01.781Z,75.90
2022-12-25T02:41:16.195Z,76.10
2022-12-25T02:44:41.763Z,76.20
2022-12-25T02:48:02.552Z,77.00
2022-12-25T02:51:28.259Z,76.10
2022-12-25T02:54:53.484Z,76.20
2022-12-25T02:58:18.891Z,76.30
2022-12-25T03:01:48.537Z,76.50
2022-12-25T03:05:12.909Z,76.20
2022-12-25T03:08:23.256Z,76.50
2022-12-25T03:11:32.144Z,76.70
2022-12-25T03:14:52.892Z,76.90
2022-12-25T03:18:02.558Z,76.70
2022-12-25T03:21:24.388Z,76.80
2022-12-25T03:24:45.182Z,76.80
2022-12-25T03:27:53.395Z,77.00
2022-12-25T03:31:13.522Z,77.20
2022-12-25T03:34:51.286Z,77.30
2022-12-25T03:38:52.105Z,77.60
2022-12-25T03:42:26.988Z,77.90
2022-12-25T03:45:57.533Z,77.40
2022-12-25T03:49:26.114Z,77.80
2022-12-25T03:52:51.985Z,77.00
2022-12-25T03:56:14.948Z,77.10
2022-12-25T03:59:39.479Z,77.20
2022-12-25T04:03:01.145Z,78.00
2022-12-25T04:06:21.871Z,77.30
2022-12-25T04:09:44.123Z,77.50
2022-12-25T04:13:07.540Z,77.70
2022-12-25T04:16:28.454Z,77.80
2022-12-25T04:19:49.204Z,77.80
2022-12-25T04:23:10.018Z,78.00
2022-12-25T04:26:32.134Z,77.90
2022-12-25T04:29:53.263Z,78.00
2022-12-25T04:33:16.904Z,78.00
2022-12-25T04:36:19.841Z,78.00
2022-12-25T04:39:23.084Z,77.90
2022-12-25T04:42:27.484Z,78.00
2022-12-25T04:45:30.747Z,78.00
2022-12-25T04:48:37.136Z,77.50
2022-12-25T04:51:40.218Z,78.00
2022-12-25T04:54:43.362Z,77.90
2022-12-25T04:57:47.761Z,78.20
2022-12-25T05:00:50.724Z,78.20
2022-12-25T05:03:54.057Z,78.00
2022-12-25T05:06:57.291Z,77.90
2022-12-25T05:10:00.597Z,77.70
2022-12-25T05:13:04.929Z,77.70
2022-12-25T05:16:09.808Z,78.30
2022-12-25T05:19:13.389Z,78.10
2022-12-25T05:22:16.555Z,77.70
2022-12-25T05:25:20.392Z,77.80
2022-12-25T05:28:25.012Z,78.10
2022-12-25T05:31:28.174Z,78.30
2022-12-25T05:34:31.421Z,77.30
2022-12-25T05:37:34.577Z,77.50
2022-12-25T05:40:41.038Z,77.60
2022-12-25T05:43:45.613Z,77.70
2022-12-25T05:46:48.776Z,77.90
2022-12-25T05:49:51.877Z,77.60
2022-12-25T05:52:54.868Z,77.80
2022-12-25T05:56:03.146Z,78.10
2022-12-25T05:59:07.602Z,77.80
2022-12-25T06:02:10.890Z,77.90
2022-12-25T06:05:14.575Z,78.00
2022-12-25T06:08:17.768Z,77.60
2022-12-25T06:11:20.955Z,78.00
2022-12-25T06:14:25.464Z,78.10
2022-12-25T06:17:29.210Z,78.10
2022-12-25T06:20:32.743Z,78.10
2022-12-25T06:23:36.494Z,78.10
2022-12-25T06:26:40.020Z,78.00
2022-12-25T06:29:44.745Z,77.80
2022-12-25T06:32:48.458Z,77.70
2022-12-25T06:35:51.646Z,77.70
2022-12-25T06:38:55.329Z,78.10
2022-12-25T06:41:58.689Z,77.80
2022-12-25T06:45:03.376Z,77.70
2022-12-25T06:48:07.328Z,77.80
2022-12-25T06:51:10.589Z,77.60
2022-12-25T06:54:13.706Z,77.60
2022-12-25T06:57:17.475Z,77.50
2022-12-25T07:00:22.696Z,77.50
2022-12-25T07:03:30.649Z,77.70
2022-12-25T07:06:34.071Z,78.00
2022-12-25T07:09:38.851Z,78.00
2022-12-25T07:12:42.671Z,78.00
2022-12-25T07:15:47.208Z,78.00
2022-12-25T07:18:50.585Z,77.90
2022-12-25T07:21:54.013Z,77.70
2022-12-25T07:24:57.842Z,77.80
2022-12-25T07:28:00.827Z,77.80
2022-12-25T07:31:08.068Z,78.00
2022-12-25T07:34:11.395Z,77.90
2022-12-25T07:37:14.890Z,77.90
2022-12-25T07:40:19.001Z,77.80
2022-12-25T07:43:22.129Z,77.80
2022-12-25T07:46:26.871Z,77.80
2022-12-25T07:49:30.120Z,77.80
2022-12-25T07:52:38.025Z,77.80
2022-12-25T07:55:44.608Z,77.80
2022-12-25T07:58:48.589Z,77.80
2022-12-25T08:01:53.115Z,77.80
2022-12-25T08:04:56.528Z,77.80
2022-12-25T08:07:59.821Z,78.00
2022-12-25T08:11:03.126Z,78.00
2022-12-25T08:14:08.195Z,78.10
2022-12-25T08:17:12.873Z,78.00
2022-12-25T08:20:16.218Z,77.90
2022-12-25T08:23:19.905Z,77.90
2022-12-25T08:26:24.430Z,77.80
2022-12-25T08:29:28.881Z,78.00
2022-12-25T08:32:35.487Z,77.90
2022-12-25T08:35:39.003Z,77.90
2022-12-25T08:38:42.958Z,77.80
2022-12-25T08:41:46.022Z,77.70
2022-12-25T08:44:49.193Z,77.60
2022-12-25T08:47:57.808Z,77.90
2022-12-25T08:51:01.732Z,77.80
2022-12-25T08:54:05.214Z,77.70
2022-12-25T08:57:08.640Z,78.30
2022-12-25T09:00:13.449Z,78.00
2022-12-25T09:03:17.942Z,78.00
2022-12-25T09:06:21.093Z,77.90
2022-12-25T09:09:28.412Z,77.80
2022-12-25T09:12:31.832Z,77.80
2022-12-25T09:15:35.191Z,78.00
2022-12-25T09:18:40.362Z,77.90
2022-12-25T09:21:43.750Z,77.90
2022-12-25T09:24:46.850Z,77.90
2022-12-25T09:27:50.010Z,77.80
2022-12-25T09:30:54.591Z,77.80
2022-12-25T09:33:59.986Z,77.70
2022-12-25T09:37:03.693Z,77.70
2022-12-25T09:40:08.905Z,77.60
2022-12-25T09:43:18.687Z,77.70
2022-12-25T09:46:30.177Z,77.60
2022-12-25T09:49:50.287Z,77.60
2022-12-25T09:53:02.063Z,78.00
2022-12-25T09:56:12.512Z,77.50
2022-12-25T09:59:26.395Z,77.30
2022-12-25T10:02:55.747Z,77.00
2022-12-25T10:06:19.650Z,76.80
2022-12-25T10:09:47.494Z,77.10
2022-12-25T10:13:10.281Z,76.60
2022-12-25T10:16:25.331Z,76.70
2022-12-25T10:19:49.278Z,76.70
2022-12-25T10:23:00.401Z,76.50
2022-12-25T10:26:05.289Z,76.60
2022-12-25T10:29:15.209Z,76.70
2022-12-25T10:32:18.213Z,76.80
2022-12-25T10:35:26.716Z,76.90
2022-12-25T10:38:40.466Z,77.00
2022-12-25T10:42:10.811Z,76.80
2022-12-25T10:45:14.002Z,76.50
2022-12-25T10:48:24.219Z,76.70
2022-12-25T10:51:31.143Z,76.60
2022-12-25T10:54:37.416Z,76.70
2022-12-25T10:57:47.377Z,77.00
2022-12-25T11:00:56.228Z,77.00
2022-12-25T11:03:59.759Z,77.10
2022-12-25T11:07:14.857Z,77.00
2022-12-25T11:10:24.460Z,77.10
2022-12-25T11:13:31.622Z,77.10
2022-12-25T11:16:40.230Z,77.20
2022-12-25T11:19:55.385Z,77.30
2022-12-25T11:22:58.622Z,77.50
2022-12-25T11:26:10.263Z,77.20
2022-12-25T11:29:25.643Z,77.30
2022-12-25T11:32:33.320Z,77.30
2022-12-25T11:35:47.631Z,77.40
2022-12-25T11:38:51.957Z,77.70
2022-12-25T11:42:02.939Z,77.50
2022-12-25T11:45:13.193Z,77.70
2022-12-25T11:48:26.273Z,77.70
2022-12-25T11:51:36.648Z,77.90
2022-12-25T11:54:52.227Z,78.20
2022-12-25T11:58:15.794Z,78.30
2022-12-25T12:01:35.648Z,78.90
2022-12-25T12:04:44.738Z,79.10
2022-12-25T12:07:58.880Z,78.80
2022-12-25T12:11:18.543Z,79.10
2022-12-25T12:14:48.900Z,79.20
2022-12-25T12:17:52.560Z,79.60
2022-12-25T12:21:09.597Z,79.10
2022-12-25T12:24:19.675Z,79.40
2022-12-25T12:27:37.649Z,79.20
2022-12-25T12:30:43.278Z,79.40
2022-12-25T12:33:54.546Z,79.90
2022-12-25T12:37:02.808Z,79.40
2022-12-25T12:40:11.535Z,79.30
2022-12-25T12:43:36.317Z,79.20
2022-12-25T12:46:52.246Z,79.70
2022-12-25T12:50:00.694Z,80.30
2022-12-25T12:53:29.476Z,79.40
2022-12-25T12:56:33.047Z,79.90
2022-12-25T12:59:43.530Z,79.50
2022-12-25T13:03:29.258Z,79.70
2022-12-25T13:06:41.852Z,80.10
2022-12-25T13:10:04.516Z,79.70
2022-12-25T13:13:18.436Z,79.90
2022-12-25T13:16:28.549Z,79.90
2022-12-25T13:19:33.291Z,79.60
2022-12-25T13:22:37.725Z,79.50
2022-12-25T13:25:40.768Z,79.60
2022-12-25T13:33:21.397Z,79.40
2022-12-25T13:36:40.153Z,79.60
2022-12-25T13:39:52.163Z,79.60
2022-12-25T13:43:22.095Z,79.50
2022-12-25T13:46:28.410Z,79.90
2022-12-25T13:49:50.493Z,79.60
2022-12-25T13:52:58.586Z,79.90
2022-12-25T13:56:02.415Z,79.70
2022-12-25T13:59:05.898Z,79.70
2022-12-25T14:02:20.276Z,79.80
2022-12-25T14:05:42.356Z,79.90
2022-12-25T14:08:49.487Z,80.10
2022-12-25T14:11:54.433Z,79.80
2022-12-25T14:15:00.273Z,79.80
2022-12-25T14:18:03.885Z,79.80
2022-12-25T14:21:11.637Z,79.70
2022-12-25T14:24:18.108Z,79.80
2022-12-25T14:27:25.049Z,79.90
2022-12-25T14:30:32.773Z,80.20
2022-12-25T14:33:41.600Z,80.00
2022-12-25T14:36:45.002Z,80.10
2022-12-25T14:39:58.462Z,80.10
2022-12-25T14:43:05.432Z,80.30
2022-12-25T14:46:09.079Z,80.10
2022-12-25T14:49:25.122Z,80.10
2022-12-25T14:52:32.035Z,80.40
2022-12-25T14:55:37.035Z,80.10
2022-12-25T14:58:47.587Z,80.20
2022-12-25T15:01:55.504Z,80.30
2022-12-25T15:04:58.719Z,80.40
2022-12-25T15:08:18.482Z,80.40
2022-12-25T15:11:23.297Z,80.40
2022-12-25T15:14:27.630Z,80.80
2022-12-25T15:17:33.805Z,80.40
2022-12-25T15:20:37.061Z,80.50
2022-12-25T15:23:41.248Z,80.40
2022-12-25T15:26:45.704Z,80.50
2022-12-25T15:33:16.593Z,80.30
2022-12-25T15:36:20.445Z,80.90
2022-12-25T15:39:23.692Z,80.40
2022-12-25T15:42:28.111Z,80.40
2022-12-25T15:45:32.298Z,80.80
2022-12-25T15:48:35.837Z,80.00
2022-12-25T15:51:39.452Z,80.50
2022-12-25T15:54:42.631Z,80.60
2022-12-25T15:57:48.569Z,80.80
2022-12-25T16:00:53.177Z,80.70
2022-12-25T16:03:56.426Z,80.70
2022-12-25T16:07:01.104Z,80.90
2022-12-25T16:10:04.468Z,80.80
2022-12-25T16:13:37.499Z,80.70
2022-12-25T16:16:41.076Z,81.20
2022-12-25T16:19:45.332Z,80.80
2022-12-25T16:22:48.955Z,81.00
2022-12-25T16:25:52.506Z,80.90
2022-12-25T16:28:56.922Z,81.00
2022-12-25T16:32:00.509Z,81.00
2022-12-25T16:35:03.613Z,81.60
2022-12-25T16:38:06.917Z,81.00
2022-12-25T16:41:12.312Z,81.10
2022-12-25T16:44:23.222Z,81.10
2022-12-25T16:47:26.504Z,81.30
2022-12-25T16:50:29.899Z,81.10
2022-12-25T16:53:33.790Z,81.40
2022-12-25T16:56:38.392Z,81.90
2022-12-25T16:59:55.337Z,81.10
2022-12-25T17:02:58.598Z,81.30
2022-12-25T17:06:02.994Z,80.50
2022-12-25T17:09:07.036Z,81.10
2022-12-25T17:12:10.919Z,81.10
2022-12-25T17:15:15.306Z,81.00
2022-12-25T17:18:21.837Z,81.10
2022-12-25T17:21:26.388Z,81.10
2022-12-25T17:24:29.940Z,81.00
2022-12-25T17:27:33.055Z,81.00
2022-12-25T17:30:37.713Z,81.10
2022-12-25T17:33:43.488Z,81.10
2022-12-25T17:36:46.941Z,81.40
2022-12-25T17:39:49.967Z,81.30
2022-12-25T17:42:53.917Z,81.30
2022-12-25T17:45:58.354Z,81.30
2022-12-25T17:49:03.105Z,81.30
2022-12-25T17:52:06.291Z,81.20
2022-12-25T17:55:10.399Z,81.30
2022-12-25T17:58:14.501Z,81.30
2022-12-25T18:01:20.866Z,81.80
2022-12-25T18:04:25.029Z,81.10
2022-12-25T18:07:31.482Z,81.10
2022-12-25T18:10:38.654Z,81.10
2022-12-25T18:13:44.788Z,81.10
2022-12-25T18:16:50.388Z,81.10
2022-12-25T18:19:54.332Z,81.10
2022-12-25T18:22:58.360Z,81.10
2022-12-25T18:26:03.512Z,81.10
2022-12-25T18:29:07.599Z,81.10
2022-12-25T18:32:12.245Z,81.10
2022-12-25T18:35:15.309Z,80.90
2022-12-25T18:38:18.458Z,81.10
2022-12-25T18:41:23.359Z,81.10
2022-12-25T18:44:26.433Z,81.10
2022-12-25T18:47:31.048Z,81.00
2022-12-25T18:50:34.926Z,81.10
2022-12-25T18:53:38.636Z,81.00
2022-12-25T18:56:41.866Z,81.00
2022-12-25T18:59:49.647Z,81.00
2022-12-25T19:02:58.035Z,81.00
2022-12-25T19:06:01.195Z,81.00
2022-12-25T19:09:09.431Z,81.00
2022-12-25T19:12:12.655Z,80.90
2022-12-25T19:15:21.985Z,80.90
2022-12-25T19:18:26.695Z,80.90
2022-12-25T19:21:30.679Z,80.70
2022-12-25T19:24:33.925Z,80.60
2022-12-25T19:27:37.178Z,80.70
2022-12-25T19:30:41.213Z,80.60
2022-12-25T19:33:46.923Z,80.60
2022-12-25T19:36:50.270Z,80.50
2022-12-25T19:39:53.290Z,81.00
2022-12-25T19:42:56.316Z,80.50
2022-12-25T19:45:59.523Z,80.40
2022-12-25T19:49:04.916Z,80.40
2022-12-25T19:52:08.730Z,80.40
2022-12-25T19:55:11.748Z,80.30
2022-12-25T19:58:15.386Z,80.20
2022-12-25T20:01:22.615Z,80.60
2022-12-25T20:04:27.010Z,80.20
2022-12-25T20:07:30.077Z,79.70
2022-12-25T20:10:33.375Z,80.00
2022-12-25T20:13:36.762Z,80.00
2022-12-25T20:16:41.801Z,80.00
2022-12-25T20:19:46.174Z,80.00
2022-12-25T20:22:49.596Z,80.00
2022-12-25T20:25:53.308Z,80.20
2022-12-25T20:28:58.572Z,80.10
2022-12-25T20:32:02.014Z,80.10
2022-12-25T20:35:07.831Z,80.00
2022-12-25T20:38:10.815Z,80.10
2022-12-25T20:41:27.929Z,80.10
2022-12-25T20:44:31.769Z,80.40
2022-12-25T20:47:37.122Z,79.90
2022-12-25T20:50:42.493Z,79.80
2022-12-25T20:53:46.370Z,80.00
2022-12-25T20:56:50.487Z,80.10
2022-12-25T20:59:54.502Z,80.20
2022-12-25T21:02:58.260Z,80.50
2022-12-25T21:06:03.131Z,80.10
2022-12-25T21:09:06.623Z,80.10
2022-12-25T21:12:10.094Z,80.10
2022-12-25T21:15:15.706Z,80.10
2022-12-25T21:18:21.976Z,80.10
2022-12-25T21:21:26.790Z,79.90
2022-12-25T21:24:29.998Z,80.00
2022-12-25T21:27:33.044Z,80.00
2022-12-25T21:30:38.234Z,79.90
2022-12-25T21:33:52.869Z,79.80
2022-12-25T21:36:57.710Z,79.80
2022-12-25T21:40:01.168Z,79.80
2022-12-25T21:43:05.451Z,79.70
2022-12-25T21:46:11.207Z,79.80
2022-12-25T21:49:35.235Z,79.70
2022-12-25T21:52:39.173Z,79.80
2022-12-25T21:55:42.331Z,79.80
2022-12-25T21:58:45.433Z,79.70
2022-12-25T22:01:49.932Z,79.30
2022-12-25T22:04:53.146Z,79.70
2022-12-25T22:07:57.118Z,79.70
2022-12-25T22:11:03.961Z,79.70
2022-12-25T22:14:51.380Z,79.80
2022-12-25T22:18:05.861Z,79.70
2022-12-25T22:21:08.945Z,79.20
2022-12-25T22:24:13.449Z,79.80
2022-12-25T22:27:17.295Z,79.80
2022-12-25T22:30:22.894Z,79.50
2022-12-25T22:33:27.960Z,79.90
2022-12-25T22:36:30.971Z,79.90
2022-12-25T22:39:36.484Z,79.90
2022-12-25T22:42:39.735Z,80.10
2022-12-25T22:45:42.754Z,80.10
2022-12-25T22:48:45.717Z,80.30
2022-12-25T22:51:50.866Z,80.10
2022-12-25T22:54:55.267Z,80.10
2022-12-25T22:57:58.588Z,80.10
2022-12-25T23:01:02.027Z,80.00
2022-12-25T23:04:07.641Z,80.00
2022-12-25T23:07:14.269Z,80.10
2022-12-25T23:10:18.838Z,80.10
2022-12-25T23:13:39.523Z,80.60
2022-12-25T23:16:43.414Z,80.10
2022-12-25T23:20:04.506Z,80.10
2022-12-25T23:23:25.341Z,80.20
2022-12-25T23:26:29.700Z,80.10
2022-12-25T23:29:39.369Z,80.20
2022-12-25T23:32:43.647Z,80.20
2022-12-25T23:35:46.698Z,80.60
2022-12-25T23:38:49.837Z,80.20
2022-12-25T23:41:54.345Z,80.30
2022-12-25T23:44:57.612Z,80.40
2022-12-25T23:48:01.709Z,80.40
2022-12-25T23:51:06.540Z,80.20
2022-12-25T23:54:11.020Z,80.20
2022-12-25T23:57:15.536Z,80.30
